Time;durP1;ratioP1;P1;durP2;ratioP2;P2;SDS_P1;SDS_P2;PMS_P1;PMS_P2;Temp;Humidity;BMP_temperature;BMP_pressure;BME280_temperature;BME280_humidity;BME280_pressure;Samples;Min_cycle;Max_cycle;Signal;HPM_P1;HPM_P2
2020/12/14 00:00:09;;;;;;;;;;;;;;;-144.28;100.00;59960.28;5064594;28;19970;-81
2020/12/14 00:02:36;;;;;;;;;;;;;;;-144.28;100.00;59960.28;5067118;28;20381;-80
2020/12/14 00:05:04;;;;;;;;;;;;;;;-144.28;100.00;59960.28;5066023;28;19924;-79
2020/12/14 00:07:30;;;;;;;;;;;;;;;-144.28;100.00;59960.28;5065959;28;20019;-80
2020/12/14 00:09:58;;;;;;;;;;;;;;;-144.28;100.00;59960.28;5065366;28;19925;-79
2020/12/14 00:12:24;;;;;;;;;;;;;;;-144.28;100.00;59960.28;5056690;28;20152;-80
2020/12/14 00:14:50;;;;;;;;;;;;;;;-144.28;100.00;59960.28;5066733;28;20454;-80
2020/12/14 00:17:20;;;;;;;;;;;;;;;-144.28;100.00;59960.28;5062691;28;19924;-80
2020/12/14 00:19:46;;;;;;;;;;;;;;;-144.28;100.00;59960.28;5066256;28;20333;-80
2020/12/14 00:22:14;;;;;;;;;;;;;;;-144.28;100.00;59960.28;5062600;28;20330;-79
2020/12/14 00:24:40;;;;;;;;;;;;;;;-144.28;100.00;59960.28;5066824;28;20014;-79
2020/12/14 00:27:07;;;;;;;;;;;;;;;-144.28;100.00;59960.28;5061137;28;20453;-79
2020/12/14 00:29:33;;;;;;;;;;;;;;;-144.28;100.00;59960.28;5064854;28;19924;-79
2020/12/14 00:32:00;;;;;;;;;;;;;;;-144.28;100.00;59960.28;5065378;28;19959;-80
2020/12/14 00:34:26;;;;;;;;;;;;;;;-144.28;100.00;59960.28;5066312;28;19924;-80
2020/12/14 00:36:52;;;;;;;;;;;;;;;-144.28;100.00;59960.28;5067992;28;19924;-78
2020/12/14 00:39:20;;;;;;;;;;;;;;;-144.28;100.00;59960.28;5062633;28;20379;-78
2020/12/14 00:41:46;;;;;;;;;;;;;;;-144.28;100.00;59960.28;5063561;28;19928;-80
2020/12/14 00:44:12;;;;;;;;;;;;;;;-144.28;100.00;59960.28;5058966;28;19959;-79
2020/12/14 00:46:39;;;;;;;;;;;;;;;-144.28;100.00;59960.28;5064954;28;20121;-82
2020/12/14 00:49:05;;;;;;;;;;;;;;;-144.28;100.00;59960.28;5070143;28;19924;-81
2020/12/14 00:51:32;;;;;;;;;;;;;;;-144.28;100.00;59960.28;5065102;28;19929;-80
2020/12/14 00:53:58;;;;;;;;;;;;;;;-144.28;100.00;59960.28;5069904;28;19956;-80
2020/12/14 00:56:25;;;;;;;;;;;;;;;-144.28;100.00;59960.28;5065855;28;19924;-79
2020/12/14 00:58:52;;;;;;;;;;;;;;;-144.28;100.00;59960.28;5049669;28;20686;-81
2020/12/14 01:01:19;;;;;;;;;;;;;;;-144.28;100.00;59960.28;5051453;28;19924;-82
2020/12/14 01:03:46;;;;;;;;;;;;;;;-144.28;100.00;59960.28;5057740;28;19925;-82
2020/12/14 01:06:12;;;;;;;;;;;;;;;-144.28;100.00;59960.28;5052708;28;19928;-82
2020/12/14 01:08:40;;;;;;;;;;;;;;;-144.28;100.00;59960.28;5051810;28;20122;-82
2020/12/14 01:11:06;;;;;;;;;;;;;;;-144.28;100.00;59960.28;5054388;28;20339;-82
2020/12/14 01:13:34;;;;;;;;;;;;;;;-144.28;100.00;59960.28;5057164;28;19925;-82
2020/12/14 01:16:00;;;;;;;;;;;;;;;-144.28;100.00;59960.28;5075598;28;20265;-81
2020/12/14 01:18:27;;;;;;;;;;;;;;;-144.28;100.00;59960.28;5068478;28;19977;-81
2020/12/14 01:20:53;;;;;;;;;;;;;;;-144.28;100.00;59960.28;5067127;28;19980;-81
2020/12/14 01:23:20;;;;;;;;;;;;;;;-144.28;100.00;59960.28;5071715;28;19924;-80
2020/12/14 01:25:46;;;;;;;;;;;;;;;-144.28;100.00;59960.28;5070259;28;19931;-82
2020/12/14 01:28:12;;;;;;;;;;;;;;;-144.28;100.00;59960.28;5071753;28;19924;-82
2020/12/14 01:30:40;;;;;;;;;;;;;;;-144.28;100.00;59960.28;5064749;28;20036;-82
2020/12/14 01:33:06;;;;;;;;;;;;;;;-144.28;100.00;59960.28;5075841;28;20013;-81
2020/12/14 01:35:32;;;;;;;;;;;;;;;-144.28;100.00;59960.28;5071959;28;20118;-82
2020/12/14 01:37:59;;;;;;;;;;;;;;;-144.28;100.00;59960.28;5086090;28;20324;-82
2020/12/14 01:40:25;;;;;;;;;;;;;;;-144.28;100.00;59960.28;5082208;28;19959;-82
2020/12/14 01:42:52;;;;;;;;;;;;;;;-144.28;100.00;59960.28;5080946;28;19928;-82
2020/12/14 01:45:18;;;;;;;;;;;;;;;-144.28;100.00;59960.28;5079006;28;19931;-83
2020/12/14 01:47:48;;;;;;;;;;;;;;;-144.28;100.00;59960.28;5070375;28;19936;-83
2020/12/14 01:50:18;;;;;;;;;;;;;;;-144.28;100.00;59960.28;5063433;28;19924;-82
2020/12/14 01:52:46;;;;;;;;;;;;;;;-144.28;100.00;59960.28;5064007;28;20007;-82
2020/12/14 01:55:13;;;;;;;;;;;;;;;-144.28;100.00;59960.28;5067713;28;19928;-82
2020/12/14 01:57:39;;;;;;;;;;;;;;;-144.28;100.00;59960.28;5071083;28;19916;-82
2020/12/14 02:00:07;;;;;;;;;;;;;;;-144.28;100.00;59960.28;5070974;28;19946;-82
2020/12/14 02:02:33;;;;;;;;;;;;;;;-144.28;100.00;59960.28;5078738;28;20001;-81
2020/12/14 02:05:01;;;;;;;;;;;;;;;-144.28;100.00;59960.28;5075256;28;19924;-81
2020/12/14 02:07:27;;;;;;;;;;;;;;;-144.28;100.00;59960.28;5076232;28;19971;-83
2020/12/14 02:09:54;;;;;;;;;;;;;;;-144.28;100.00;59960.28;5085241;28;19931;-81
2020/12/14 02:12:22;;;;;;;;;;;;;;;-144.28;100.00;59960.28;5080904;28;19928;-83
2020/12/14 02:14:49;;;;;;;;;;;;;;;-144.28;100.00;59960.28;5077018;28;19950;-82
2020/12/14 02:17:18;;;;;;;;;;;;;;;-144.28;100.00;59960.28;5066517;28;19925;-83
2020/12/14 02:19:44;;;;;;;;;;;;;;;-144.28;100.00;59960.28;5059352;28;19986;-83
2020/12/14 02:22:12;;;;;;;;;;;;;;;-144.28;100.00;59960.28;5057406;28;19924;-80
2020/12/14 02:24:39;;;;;;;;;;;;;;;-144.28;100.00;59960.28;5055874;28;20034;-83
2020/12/14 02:27:06;;;;;;;;;;;;;;;-144.28;100.00;59960.28;5059411;28;19925;-83
2020/12/14 02:29:32;;;;;;;;;;;;;;;-144.28;100.00;59960.28;5054233;28;20183;-83
2020/12/14 02:31:59;;;;;;;;;;;;;;;-144.28;100.00;59960.28;5063568;28;19924;-83
2020/12/14 02:34:25;;;;;;;;;;;;;;;-144.28;100.00;59960.28;5080147;28;19946;-83
2020/12/14 02:36:51;;;;;;;;;;;;;;;-144.28;100.00;59960.28;5080116;28;20124;-80
2020/12/14 02:39:18;;;;;;;;;;;;;;;-144.28;100.00;59960.28;5078013;28;19925;-82
2020/12/14 02:41:45;;;;;;;;;;;;;;;-144.28;100.00;59960.28;5073529;28;20014;-83
2020/12/14 02:44:12;;;;;;;;;;;;;;;-144.28;100.00;59960.28;5082693;28;19928;-82
2020/12/14 02:46:40;;;;;;;;;;;;;;;-144.28;100.00;59960.28;5079441;28;19970;-81
2020/12/14 02:49:06;;;;;;;;;;;;;;;-144.28;100.00;59960.28;5054958;28;20368;-82
2020/12/14 02:51:33;;;;;;;;;;;;;;;-144.28;100.00;59960.28;5079931;28;20188;-82
2020/12/14 02:53:59;;;;;;;;;;;;;;;-144.28;100.00;59960.28;5068098;28;19924;-83
2020/12/14 02:56:26;;;;;;;;;;;;;;;-144.28;100.00;59960.28;5082879;28;19924;-82
2020/12/14 02:58:53;;;;;;;;;;;;;;;-144.28;100.00;59960.28;5082344;28;19955;-82
2020/12/14 03:01:19;;;;;;;;;;;;;;;-144.28;100.00;59960.28;5085751;28;19925;-82
2020/12/14 03:03:46;;;;;;;;;;;;;;;-144.28;100.00;59960.28;5080307;28;19924;-81
2020/12/14 03:06:12;;;;;;;;;;;;;;;-144.28;100.00;59960.28;5044547;28;20439;-82
2020/12/14 03:08:39;;;;;;;;;;;;;;;-144.28;100.00;59960.28;5061633;28;19956;-82
2020/12/14 03:11:05;;;;;;;;;;;;;;;-144.28;100.00;59960.28;5081861;28;19925;-82
2020/12/14 03:13:32;;;;;;;;;;;;;;;-144.28;100.00;59960.28;5081529;28;20428;-81
2020/12/14 03:15:59;;;;;;;;;;;;;;;-144.28;100.00;59960.28;5082738;28;19924;-81
2020/12/14 03:18:25;;;;;;;;;;;;;;;-144.28;100.00;59960.28;5079902;28;19925;-81
2020/12/14 03:20:52;;;;;;;;;;;;;;;-144.28;100.00;59960.28;5062529;28;19924;-82
2020/12/14 03:23:18;;;;;;;;;;;;;;;-144.28;100.00;59960.28;5063744;28;19955;-82
2020/12/14 03:25:45;;;;;;;;;;;;;;;-144.28;100.00;59960.28;5061342;28;19925;-82
2020/12/14 03:28:11;;;;;;;;;;;;;;;-144.28;100.00;59960.28;5063072;28;19928;-81
2020/12/14 03:30:37;;;;;;;;;;;;;;;-144.28;100.00;59960.28;5057087;28;19932;-82
2020/12/14 03:33:06;;;;;;;;;;;;;;;-144.28;100.00;59960.28;5041449;28;19971;-82
2020/12/14 03:35:32;;;;;;;;;;;;;;;-144.28;100.00;59960.28;5053077;28;20284;-81
2020/12/14 03:37:59;;;;;;;;;;;;;;;-144.28;100.00;59960.28;5061633;28;19925;-83
2020/12/14 03:40:25;;;;;;;;;;;;;;;-144.28;100.00;59960.28;5061780;28;19952;-83
2020/12/14 03:42:52;;;;;;;;;;;;;;;-144.28;100.00;59960.28;5058969;28;19929;-82
2020/12/14 03:45:18;;;;;;;;;;;;;;;-144.28;100.00;59960.28;5024224;28;20439;-82
2020/12/14 03:47:45;;;;;;;;;;;;;;;-144.28;100.00;59960.28;5051298;28;20119;-82
2020/12/14 03:50:12;;;;;;;;;;;;;;;-144.28;100.00;59960.28;5062643;28;19933;-83
2020/12/14 03:52:39;;;;;;;;;;;;;;;-144.28;100.00;59960.28;5080669;28;19975;-81
2020/12/14 03:55:06;;;;;;;;;;;;;;;-144.28;100.00;59960.28;5077642;28;20138;-83
2020/12/14 03:57:32;;;;;;;;;;;;;;;-144.28;100.00;59960.28;5081184;28;19932;-81
2020/12/14 03:59:59;;;;;;;;;;;;;;;-144.28;100.00;59960.28;5078188;28;20126;-81
2020/12/14 04:02:27;;;;;;;;;;;;;;;-144.28;100.00;59960.28;5064908;28;19924;-81
2020/12/14 04:04:54;;;;;;;;;;;;;;;-144.28;100.00;59960.28;5075288;28;19932;-80
2020/12/14 04:07:21;;;;;;;;;;;;;;;-144.28;100.00;59960.28;5063040;28;19925;-82
2020/12/14 04:09:48;;;;;;;;;;;;;;;-144.28;100.00;59960.28;5054437;28;19925;-81
2020/12/14 04:12:14;;;;;;;;;;;;;;;-144.28;100.00;59960.28;5073230;28;19925;-82
2020/12/14 04:14:41;;;;;;;;;;;;;;;-144.28;100.00;59960.28;5077773;28;19924;-82
2020/12/14 04:17:07;;;;;;;;;;;;;;;-144.28;100.00;59960.28;5076478;28;20259;-83
2020/12/14 04:19:36;;;;;;;;;;;;;;;-144.28;100.00;59960.28;5078888;28;19924;-82
2020/12/14 04:22:07;;;;;;;;;;;;;;;-144.28;100.00;59960.28;5053464;28;19933;-82
2020/12/14 04:24:35;;;;;;;;;;;;;;;-144.28;100.00;59960.28;5060923;28;19956;-82
2020/12/14 04:27:02;;;;;;;;;;;;;;;-144.28;100.00;59960.28;5066699;28;19924;-82
2020/12/14 04:29:28;;;;;;;;;;;;;;;-144.28;100.00;59960.28;5082468;28;20284;-82
2020/12/14 04:31:54;;;;;;;;;;;;;;;-144.28;100.00;59960.28;5081071;28;20134;-83
2020/12/14 04:34:21;;;;;;;;;;;;;;;-144.28;100.00;59960.28;5082823;28;19924;-83
2020/12/14 04:36:48;;;;;;;;;;;;;;;-144.28;100.00;59960.28;5073425;28;20312;-82
2020/12/14 04:39:15;;;;;;;;;;;;;;;-144.28;100.00;59960.28;5079587;28;19924;-83
2020/12/14 04:41:42;;;;;;;;;;;;;;;-144.28;100.00;59960.28;5081482;28;19931;-82
2020/12/14 04:44:09;;;;;;;;;;;;;;;-144.28;100.00;59960.28;5063465;28;20122;-83
2020/12/14 04:46:36;;;;;;;;;;;;;;;-144.28;100.00;59960.28;5083883;28;19955;-82
2020/12/14 04:49:03;;;;;;;;;;;;;;;-144.28;100.00;59960.28;5083794;28;19924;-83
2020/12/14 04:51:30;;;;;;;;;;;;;;;-144.28;100.00;59960.28;5069097;28;19964;-83
2020/12/14 04:53:57;;;;;;;;;;;;;;;-144.28;100.00;59960.28;5077830;28;20593;-83
2020/12/14 04:56:26;;;;;;;;;;;;;;;-144.28;100.00;59960.28;5080145;28;19924;-83
2020/12/14 04:58:55;;;;;;;;;;;;;;;-144.28;100.00;59960.28;5077541;28;19947;-83
2020/12/14 05:01:21;;;;;;;;;;;;;;;-144.28;100.00;59960.28;5064690;28;20003;-82
2020/12/14 05:03:47;;;;;;;;;;;;;;;-144.28;100.00;59960.28;5083810;28;19932;-82
2020/12/14 05:06:14;;;;;;;;;;;;;;;-144.28;100.00;59960.28;5068481;28;19924;-83
2020/12/14 05:08:41;;;;;;;;;;;;;;;-144.28;100.00;59960.28;5082265;28;20296;-82
2020/12/14 05:11:08;;;;;;;;;;;;;;;-144.28;100.00;59960.28;5087419;28;19924;-82
2020/12/14 05:13:34;;;;;;;;;;;;;;;-144.28;100.00;59960.28;5079713;28;19932;-82
2020/12/14 05:16:02;;;;;;;;;;;;;;;-144.28;100.00;59960.28;5078721;28;19925;-82
2020/12/14 05:18:28;;;;;;;;;;;;;;;-144.28;100.00;59960.28;5085210;28;19975;-83
2020/12/14 05:20:59;;;;;;;;;;;;;;;-144.28;100.00;59960.28;5087589;28;19925;-82
2020/12/14 05:23:25;;;;;;;;;;;;;;;-144.28;100.00;59960.28;5080764;28;19994;-83
2020/12/14 05:26:02;;;;;;;;;;;;;;;-144.28;100.00;59960.28;5092253;28;19931;-82
2020/12/14 05:28:29;;;;;;;;;;;;;;;-144.28;100.00;59960.28;5075502;28;19925;-82
2020/12/14 05:30:56;;;;;;;;;;;;;;;-144.28;100.00;59960.28;5067242;28;19932;-83
2020/12/14 05:33:24;;;;;;;;;;;;;;;-144.28;100.00;59960.28;5044560;28;19925;-83
2020/12/14 05:35:50;;;;;;;;;;;;;;;-144.28;100.00;59960.28;5076549;28;19924;-83
2020/12/14 05:38:17;;;;;;;;;;;;;;;-144.28;100.00;59960.28;5062999;28;19960;-83
2020/12/14 05:40:45;;;;;;;;;;;;;;;-144.28;100.00;59960.28;5065018;28;19979;-83
2020/12/14 05:43:12;;;;;;;;;;;;;;;-144.28;100.00;59960.28;5059364;28;19928;-82
2020/12/14 05:45:38;;;;;;;;;;;;;;;-144.28;100.00;59960.28;5060200;28;19953;-82
2020/12/14 05:48:05;;;;;;;;;;;;;;;-144.28;100.00;59960.28;5064479;28;19925;-82
2020/12/14 05:50:32;;;;;;;;;;;;;;;-144.28;100.00;59960.28;5062516;28;19990;-83
2020/12/14 05:53:06;;;;;;;;;;;;;;;-144.28;100.00;59960.28;5064461;28;19925;-81
2020/12/14 05:55:34;;;;;;;;;;;;;;;-144.28;100.00;59960.28;5064791;28;20118;-83
2020/12/14 05:58:01;;;;;;;;;;;;;;;-144.28;100.00;59960.28;5064792;28;19932;-82
2020/12/14 06:00:28;;;;;;;;;;;;;;;-144.28;100.00;59960.28;5064819;28;19975;-82
2020/12/14 06:02:55;;;;;;;;;;;;;;;-144.28;100.00;59960.28;5066686;28;19932;-82
2020/12/14 06:05:23;;;;;;;;;;;;;;;-144.28;100.00;59960.28;5050319;28;19924;-83
2020/12/14 06:07:58;;;;;;;;;;;;;;;-144.28;100.00;59960.28;5065310;28;19924;-82
2020/12/14 06:10:25;;;;;;;;;;;;;;;-144.28;100.00;59960.28;5075038;28;19982;-83
2020/12/14 06:12:57;;;;;;;;;;;;;;;-144.28;100.00;59960.28;5085294;28;19925;-83
2020/12/14 06:15:26;;;;;;;;;;;;;;;-144.28;100.00;59960.28;5079441;28;19925;-82
2020/12/14 06:17:54;;;;;;;;;;;;;;;-144.28;100.00;59960.28;5083671;28;19947;-82
2020/12/14 06:20:23;;;;;;;;;;;;;;;-144.28;100.00;59960.28;5079646;28;19958;-82
2020/12/14 06:22:52;;;;;;;;;;;;;;;-144.28;100.00;59960.28;5086868;28;19974;-82
2020/12/14 06:25:23;;;;;;;;;;;;;;;-144.28;100.00;59960.28;5085252;28;19924;-82
2020/12/14 06:27:50;;;;;;;;;;;;;;;-144.28;100.00;59960.28;5093375;28;19909;-83
2020/12/14 06:30:28;;;;;;;;;;;;;;;-144.28;100.00;59960.28;5084855;28;19924;-80
2020/12/14 06:32:58;;;;;;;;;;;;;;;-144.28;100.00;59960.28;5072247;28;19924;-83
2020/12/14 06:35:41;;;;;;;;;;;;;;;-144.28;100.00;59960.28;5091896;28;19925;-82
2020/12/14 06:38:08;;;;;;;;;;;;;;;-144.28;100.00;59960.28;5088725;28;19947;-82
2020/12/14 06:40:49;;;;;;;;;;;;;;;-144.28;100.00;59960.28;5083290;28;19931;-83
2020/12/14 06:43:28;;;;;;;;;;;;;;;-144.28;100.00;59960.28;5074059;28;20300;-83
2020/12/14 06:45:55;;;;;;;;;;;;;;;-144.28;100.00;59960.28;5079607;28;20500;-83
2020/12/14 06:48:32;;;;;;;;;;;;;;;-144.28;100.00;59960.28;5091315;28;19924;-81
2020/12/14 06:50:58;;;;;;;;;;;;;;;-144.28;100.00;59960.28;5090712;28;20473;-82
2020/12/14 06:53:54;;;;;;;;;;;;;;;-144.28;100.00;59960.28;5088955;28;19924;-81
2020/12/14 06:56:35;;;;;;;;;;;;;;;-144.28;100.00;59960.28;5074311;28;19924;-81
2020/12/14 06:59:02;;;;;;;;;;;;;;;-144.28;100.00;59960.28;5081976;28;19924;-82
2020/12/14 07:01:33;;;;;;;;;;;;;;;-144.28;100.00;59960.28;5072960;28;19925;-81
2020/12/14 07:04:00;;;;;;;;;;;;;;;-144.28;100.00;59960.28;5062514;28;19925;-82
2020/12/14 07:06:27;;;;;;;;;;;;;;;-144.28;100.00;59960.28;5064422;28;19978;-81
2020/12/14 07:08:54;;;;;;;;;;;;;;;-144.28;100.00;59960.28;5061302;28;20127;-83
2020/12/14 07:11:22;;;;;;;;;;;;;;;-144.28;100.00;59960.28;5056408;28;19947;-80
2020/12/14 07:13:48;;;;;;;;;;;;;;;-144.28;100.00;59960.28;5082558;28;19970;-81
2020/12/14 07:16:16;;;;;;;;;;;;;;;-144.28;100.00;59960.28;5083030;28;19924;-81
2020/12/14 07:18:44;;;;;;;;;;;;;;;-144.28;100.00;59960.28;5060036;28;19960;-82
2020/12/14 07:21:12;;;;;;;;;;;;;;;-144.28;100.00;59960.28;5043673;28;19924;-81
2020/12/14 07:23:39;;;;;;;;;;;;;;;-144.28;100.00;59960.28;5059659;28;19925;-82
2020/12/14 07:26:05;;;;;;;;;;;;;;;-144.28;100.00;59960.28;5060934;28;19955;-81
2020/12/14 07:28:43;;;;;;;;;;;;;;;-144.28;100.00;59960.28;5059649;28;19925;-82
2020/12/14 07:31:24;;;;;;;;;;;;;;;-144.28;100.00;59960.28;5062839;28;19925;-81
2020/12/14 07:33:54;;;;;;;;;;;;;;;-144.28;100.00;59960.28;5073990;28;19934;-82
2020/12/14 07:36:21;;;;;;;;;;;;;;;-144.28;100.00;59960.28;5084548;28;19932;-82
2020/12/14 07:38:48;;;;;;;;;;;;;;;-144.28;100.00;59960.28;5078617;28;19925;-81
2020/12/14 07:41:15;;;;;;;;;;;;;;;-144.28;100.00;59960.28;5060149;28;19924;-81
2020/12/14 07:43:42;;;;;;;;;;;;;;;-144.28;100.00;59960.28;5074127;28;19986;-81
2020/12/14 07:46:19;;;;;;;;;;;;;;;-144.28;100.00;59960.28;5088253;28;19940;-82
2020/12/14 07:49:00;;;;;;;;;;;;;;;-144.28;100.00;59960.28;5083823;28;19933;-82
2020/12/14 07:51:29;;;;;;;;;;;;;;;-144.28;100.00;59960.28;5081412;28;19971;-81
2020/12/14 07:54:03;;;;;;;;;;;;;;;-144.28;100.00;59960.28;5091453;28;19929;-81
2020/12/14 07:56:29;;;;;;;;;;;;;;;-144.28;100.00;59960.28;5084793;28;19931;-81
2020/12/14 07:58:56;;;;;;;;;;;;;;;-144.28;100.00;59960.28;5070561;28;19928;-82
2020/12/14 08:01:23;;;;;;;;;;;;;;;-144.28;100.00;59960.28;5068017;28;19925;-83
2020/12/14 08:03:49;;;;;;;;;;;;;;;-144.28;100.00;59960.28;5062143;28;19943;-82
2020/12/14 08:06:16;;;;;;;;;;;;;;;-144.28;100.00;59960.28;5074626;28;20376;-81
2020/12/14 08:08:46;;;;;;;;;;;;;;;-144.28;100.00;59960.28;5079792;28;19924;-82
2020/12/14 08:11:13;;;;;;;;;;;;;;;-144.28;100.00;59960.28;5077771;28;20131;-80
2020/12/14 08:13:40;;;;;;;;;;;;;;;-144.28;100.00;59960.28;5069557;28;19909;-83
2020/12/14 08:16:08;;;;;;;;;;;;;;;-144.28;100.00;59960.28;5069544;28;19924;-82
2020/12/14 08:18:35;;;;;;;;;;;;;;;-144.28;100.00;59960.28;5044203;28;19928;-82
2020/12/14 08:21:06;;;;;;;;;;;;;;;-144.28;100.00;59960.28;5081114;28;19999;-82
2020/12/14 08:23:37;;;;;;;;;;;;;;;-144.28;100.00;59960.28;5085733;28;19924;-83
2020/12/14 08:26:12;;;;;;;;;;;;;;;-144.28;100.00;59960.28;5078718;28;21084;-82
2020/12/14 08:28:39;;;;;;;;;;;;;;;-144.28;100.00;59960.28;5068868;28;19924;-83
2020/12/14 08:31:05;;;;;;;;;;;;;;;-144.28;100.00;59960.28;5038490;28;20046;-82
2020/12/14 08:33:33;;;;;;;;;;;;;;;-144.28;100.00;59960.28;5072003;28;19978;-80
2020/12/14 08:36:08;;;;;;;;;;;;;;;-144.28;100.00;59960.28;5066959;28;19930;-82
2020/12/14 08:38:35;;;;;;;;;;;;;;;-144.28;100.00;59960.28;5037759;28;19925;-79
2020/12/14 08:41:02;;;;;;;;;;;;;;;-144.28;100.00;59960.28;5050074;28;20180;-81
2020/12/14 08:43:30;;;;;;;;;;;;;;;-144.28;100.00;59960.28;5072338;28;20328;-81
2020/12/14 08:46:00;;;;;;;;;;;;;;;-144.28;100.00;59960.28;5069147;28;20422;-80
2020/12/14 08:48:27;;;;;;;;;;;;;;;-144.28;100.00;59960.28;5076609;28;19925;-82
2020/12/14 08:51:06;;;;;;;;;;;;;;;-144.28;100.00;59960.28;5069467;28;19940;-82
2020/12/14 08:53:33;;;;;;;;;;;;;;;-144.28;100.00;59960.28;5080355;28;19974;-81
2020/12/14 08:56:05;;;;;;;;;;;;;;;-144.28;100.00;59960.28;5075479;28;19925;-81
2020/12/14 08:58:33;;;;;;;;;;;;;;;-144.28;100.00;59960.28;5061458;28;19926;-81
2020/12/14 09:01:09;;;;;;;;;;;;;;;-144.28;100.00;59960.28;5084585;28;20319;-84
2020/12/14 09:03:44;;;;;;;;;;;;;;;-144.28;100.00;59960.28;5109551;28;19924;-83
2020/12/14 09:06:18;;;;;;;;;;;;;;;-144.28;100.00;59960.28;5098354;28;20521;-81
2020/12/14 09:08:54;;;;;;;;;;;;;;;-144.28;100.00;59960.28;5064661;28;19924;-80
2020/12/14 09:11:21;;;;;;;;;;;;;;;-144.28;100.00;59960.28;5063059;28;19932;-81
2020/12/14 09:13:49;;;;;;;;;;;;;;;-144.28;100.00;59960.28;5054806;28;19948;-81
2020/12/14 09:16:17;;;;;;;;;;;;;;;-144.28;100.00;59960.28;5069457;28;19924;-78
2020/12/14 09:18:43;;;;;;;;;;;;;;;-144.28;100.00;59960.28;5064896;28;19933;-78
2020/12/14 09:21:10;;;;;;;;;;;;;;;-144.28;100.00;59960.28;5060072;28;19951;-77
2020/12/14 09:23:37;;;;;;;;;;;;;;;-144.28;100.00;59960.28;5064480;28;19929;-80
2020/12/14 09:26:03;;;;;;;;;;;;;;;-144.28;100.00;59960.28;5068834;28;20117;-79
2020/12/14 09:28:30;;;;;;;;;;;;;;;-144.28;100.00;59960.28;5062448;28;20399;-80
2020/12/14 09:30:57;;;;;;;;;;;;;;;-144.28;100.00;59960.28;5057854;28;20574;-80
2020/12/14 09:33:23;;;;;;;;;;;;;;;-144.28;100.00;59960.28;5068248;28;19924;-79
2020/12/14 09:35:49;;;;;;;;;;;;;;;-144.28;100.00;59960.28;5051979;28;19956;-80
2020/12/14 09:38:16;;;;;;;;;;;;;;;-144.28;100.00;59960.28;5057318;28;19932;-80
2020/12/14 09:40:42;;;;;;;;;;;;;;;-144.28;100.00;59960.28;5064235;28;19931;-79
2020/12/14 09:43:08;;;;;;;;;;;;;;;-144.28;100.00;59960.28;5048483;28;19960;-77
2020/12/14 09:45:35;;;;;;;;;;;;;;;-144.28;100.00;59960.28;5067355;28;19925;-82
2020/12/14 09:48:02;;;;;;;;;;;;;;;-144.28;100.00;59960.28;5057826;28;19971;-80
2020/12/14 09:50:28;;;;;;;;;;;;;;;-144.28;100.00;59960.28;5066500;28;20010;-80
2020/12/14 09:52:56;;;;;;;;;;;;;;;-144.28;100.00;59960.28;5053801;28;19998;-80
2020/12/14 09:55:22;;;;;;;;;;;;;;;-144.28;100.00;59960.28;5046745;28;20722;-78
2020/12/14 09:57:48;;;;;;;;;;;;;;;-144.28;100.00;59960.28;5064861;28;19925;-79
2020/12/14 10:00:14;;;;;;;;;;;;;;;-144.28;100.00;59960.28;5052253;28;20295;-79
2020/12/14 10:02:41;;;;;;;;;;;;;;;-144.28;100.00;59960.28;5038995;28;20010;-79
2020/12/14 10:05:08;;;;;;;;;;;;;;;-144.28;100.00;59960.28;5054369;28;19924;-80
2020/12/14 10:07:34;;;;;;;;;;;;;;;-144.28;100.00;59960.28;5055246;28;19987;-79
2020/12/14 10:10:00;;;;;;;;;;;;;;;-144.28;100.00;59960.28;5063705;28;19925;-78
2020/12/14 10:12:28;;;;;;;;;;;;;;;-144.28;100.00;59960.28;5061135;28;20196;-79
2020/12/14 10:14:56;;;;;;;;;;;;;;;-144.28;100.00;59960.28;5051919;28;19968;-79
2020/12/14 10:17:22;;;;;;;;;;;;;;;-144.28;100.00;59960.28;5040731;28;19999;-78
2020/12/14 10:19:49;;;;;;;;;;;;;;;-144.28;100.00;59960.28;5050196;28;19971;-79
2020/12/14 10:22:16;;;;;;;;;;;;;;;-144.28;100.00;59960.28;5047704;28;20221;-78
2020/12/14 10:24:42;;;;;;;;;;;;;;;-144.28;100.00;59960.28;5051507;28;19955;-78
2020/12/14 10:27:08;;;;;;;;;;;;;;;-144.28;100.00;59960.28;5043972;28;19925;-79
2020/12/14 10:29:34;;;;;;;;;;;;;;;-144.28;100.00;59960.28;5051564;28;19974;-78
2020/12/14 10:32:01;;;;;;;;;;;;;;;-144.28;100.00;59960.28;5045456;28;20364;-78
2020/12/14 10:34:27;;;;;;;;;;;;;;;-144.28;100.00;59960.28;5037132;28;20055;-79
2020/12/14 10:36:53;;;;;;;;;;;;;;;-144.28;100.00;59960.28;5044491;28;19925;-81
2020/12/14 10:39:20;;;;;;;;;;;;;;;-144.28;100.00;59960.28;5048580;28;19960;-79
2020/12/14 10:41:47;;;;;;;;;;;;;;;-144.28;100.00;59960.28;5062659;28;20285;-80
2020/12/14 10:44:13;;;;;;;;;;;;;;;-144.28;100.00;59960.28;5053178;28;19951;-78
2020/12/14 10:46:39;;;;;;;;;;;;;;;-144.28;100.00;59960.28;5037886;28;19925;-78
2020/12/14 10:49:06;;;;;;;;;;;;;;;-144.28;100.00;59960.28;5050364;28;20422;-79
2020/12/14 10:51:32;;;;;;;;;;;;;;;-144.28;100.00;59960.28;5040787;28;19967;-78
2020/12/14 10:53:59;;;;;;;;;;;;;;;-144.28;100.00;59960.28;5048087;28;20335;-79
2020/12/14 10:56:26;;;;;;;;;;;;;;;-144.28;100.00;59960.28;5064565;28;19925;-79
2020/12/14 10:58:53;;;;;;;;;;;;;;;-144.28;100.00;59960.28;5064339;28;19955;-79
2020/12/14 11:01:19;;;;;;;;;;;;;;;-144.28;100.00;59960.28;5054874;28;19959;-79
2020/12/14 11:03:45;;;;;;;;;;;;;;;-144.28;100.00;59960.28;5061652;28;19967;-80
2020/12/14 11:06:12;;;;;;;;;;;;;;;-144.28;100.00;59960.28;5065064;28;19960;-77
2020/12/14 11:08:38;;;;;;;;;;;;;;;-144.28;100.00;59960.28;5066825;28;19964;-78
2020/12/14 11:11:05;;;;;;;;;;;;;;;-144.28;100.00;59960.28;5066738;28;19963;-78
2020/12/14 11:13:32;;;;;;;;;;;;;;;-144.28;100.00;59960.28;5067488;28;19924;-80
2020/12/14 11:16:00;;;;;;;;;;;;;;;-144.28;100.00;59960.28;5067868;28;20357;-80
2020/12/14 11:18:26;;;;;;;;;;;;;;;-144.28;100.00;59960.28;5062590;28;19928;-77
2020/12/14 11:20:52;;;;;;;;;;;;;;;-144.28;100.00;59960.28;5064536;28;20390;-78
2020/12/14 11:23:19;;;;;;;;;;;;;;;-144.28;100.00;59960.28;5067161;28;19951;-78
2020/12/14 11:25:45;;;;;;;;;;;;;;;-144.28;100.00;59960.28;5067458;28;20737;-80
2020/12/14 11:28:11;;;;;;;;;;;;;;;-144.28;100.00;59960.28;5069345;28;20447;-80
2020/12/14 11:30:38;;;;;;;;;;;;;;;-144.28;100.00;59960.28;5066982;28;19928;-79
2020/12/14 11:33:05;;;;;;;;;;;;;;;-144.28;100.00;59960.28;5063450;28;20001;-79
2020/12/14 11:35:31;;;;;;;;;;;;;;;-144.28;100.00;59960.28;5058043;28;19963;-79
2020/12/14 11:37:57;;;;;;;;;;;;;;;-144.28;100.00;59960.28;5052449;28;19924;-78
2020/12/14 11:40:24;;;;;;;;;;;;;;;-144.28;100.00;59960.28;5044692;28;19928;-78
2020/12/14 11:42:50;;;;;;;;;;;;;;;-144.28;100.00;59960.28;5063081;28;19924;-80
2020/12/14 11:45:16;;;;;;;;;;;;;;;-144.28;100.00;59960.28;5069670;28;19924;-79
2020/12/14 11:47:43;;;;;;;;;;;;;;;-144.28;100.00;59960.28;5047234;28;20031;-81
2020/12/14 11:50:10;;;;;;;;;;;;;;;-144.28;100.00;59960.28;5054622;28;20189;-78
2020/12/14 11:52:36;;;;;;;;;;;;;;;-144.28;100.00;59960.28;5057051;28;19928;-79
2020/12/14 11:55:06;;;;;;;;;;;;;;;-144.28;100.00;59960.28;5063205;28;20700;-79
2020/12/14 11:57:33;;;;;;;;;;;;;;;-144.28;100.00;59960.28;5051231;28;19932;-79
2020/12/14 11:59:59;;;;;;;;;;;;;;;-144.28;100.00;59960.28;5067675;28;20435;-79
2020/12/14 12:02:25;;;;;;;;;;;;;;;-144.28;100.00;59960.28;5058982;28;19925;-79
2020/12/14 12:04:53;;;;;;;;;;;;;;;-144.28;100.00;59960.28;5059542;28;20373;-78
2020/12/14 12:07:19;;;;;;;;;;;;;;;-144.28;100.00;59960.28;5065238;28;19963;-79
2020/12/14 12:09:45;;;;;;;;;;;;;;;-144.28;100.00;59960.28;5067230;28;19924;-79
2020/12/14 12:12:11;;;;;;;;;;;;;;;-144.28;100.00;59960.28;5060939;28;19940;-79
2020/12/14 12:14:37;;;;;;;;;;;;;;;-144.28;100.00;59960.28;5065297;28;19972;-79
2020/12/14 12:17:04;;;;;;;;;;;;;;;-144.28;100.00;59960.28;5060709;28;23192;-79
2020/12/14 12:19:30;;;;;;;;;;;;;;;-144.28;100.00;59960.28;5070610;28;19968;-79